Time;durP1;ratioP1;P1;durP2;ratioP2;P2;SDS_P1;SDS_P2;PMS_P1;PMS_P2;Temp;Humidity;BMP_temperature;BMP_pressure;BME280_temperature;BME280_humidity;BME280_pressure;Samples;Min_cycle;Max_cycle;Signal;HPM_P1;HPM_P2
2022/02/09 00:01:32;;;;;;;47.30;24.08;;;8.50;99.90;;;;;;5048372;28;20113;-59
2022/02/09 00:04:18;;;;;;;43.95;24.15;;;8.60;99.90;;;;;;5047059;28;20468;-60
2022/02/09 00:07:21;;;;;;;42.50;25.58;;;8.60;99.90;;;;;;5047144;28;20021;-59
2022/02/09 00:09:36;;;;;;;47.97;26.35;;;8.60;99.90;;;;;;5045245;28;20037;-59
2022/02/09 00:12:07;;;;;;;47.92;25.48;;;8.60;99.90;;;;;;5047107;28;20028;-59
2022/02/09 00:14:45;;;;;;;53.55;30.67;;;8.70;99.90;;;;;;5048143;28;20053;-59
2022/02/09 00:25:35;;;;;;;63.30;34.22;;;8.50;99.90;;;;;;5072026;28;20075;-59
2022/02/09 00:28:27;;;;;;;55.78;32.03;;;8.60;99.90;;;;;;5071495;28;20021;-59
2022/02/09 00:34:19;;;;;;;62.08;32.92;;;8.60;99.90;;;;;;5059396;28;20059;-59
2022/02/09 00:45:06;;;;;;;56.17;34.00;;;8.70;99.90;;;;;;5071645;28;20025;-60
2022/02/09 01:38:59;;;;;;;24.55;18.13;;;8.90;99.90;;;;;;5069909;28;20044;-59
2022/02/09 01:57:36;;;;;;;24.95;14.55;;;8.90;99.90;;;;;;5069933;28;20112;-58
2022/02/09 02:00:06;;;;;;;21.50;13.52;;;8.90;99.90;;;;;;5070084;28;20653;-58
2022/02/09 02:02:32;;;;;;;19.30;13.35;;;8.90;99.90;;;;;;5070369;28;20029;-58
2022/02/09 02:04:57;;;;;;;22.17;13.98;;;8.90;99.90;;;;;;5070412;28;20033;-58
2022/02/09 02:07:40;;;;;;;19.98;13.18;;;8.90;99.90;;;;;;5069675;28;20063;-58
2022/02/09 02:10:09;;;;;;;21.48;13.48;;;8.90;99.90;;;;;;5070038;28;20108;-58
2022/02/09 02:13:13;;;;;;;23.50;13.35;;;9.00;99.90;;;;;;5070103;28;20056;-57
2022/02/09 02:18:07;;;;;;;20.25;12.90;;;9.00;99.90;;;;;;5058246;28;20441;-58
2022/02/09 02:20:45;;;;;;;22.15;13.30;;;9.00;99.90;;;;;;5069874;28;20207;-58
2022/02/09 02:23:33;;;;;;;21.80;12.85;;;9.00;99.90;;;;;;5069687;28;20043;-58
2022/02/09 02:26:12;;;;;;;23.33;14.75;;;9.00;99.90;;;;;;5069802;28;20020;-59
2022/02/09 02:31:59;;;;;;;22.15;14.48;;;9.10;99.90;;;;;;5070235;28;20568;-59
2022/02/09 02:42:32;;;;;;;21.05;15.07;;;9.10;99.90;;;;;;5069343;28;20369;-59
2022/02/09 03:08:46;;;;;;;26.38;14.48;;;9.20;99.90;;;;;;5068199;28;20394;-59
2022/02/09 03:13:33;;;;;;;22.27;13.30;;;9.30;99.90;;;;;;5068986;28;20115;-58
2022/02/09 03:16:04;;;;;;;24.40;13.52;;;9.20;99.90;;;;;;5058263;28;20163;-59
2022/02/09 03:21:27;;;;;;;21.17;11.48;;;9.20;99.90;;;;;;5068969;28;20035;-58
2022/02/09 03:23:59;;;;;;;18.58;10.20;;;9.20;99.90;;;;;;5068580;28;20048;-57
2022/02/09 03:26:52;;;;;;;17.52;10.23;;;9.20;99.90;;;;;;5068158;28;20045;-58
2022/02/09 03:45:50;;;;;;;14.93;10.02;;;9.20;99.90;;;;;;5066989;28;20115;-59
2022/02/09 03:51:37;;;;;;;17.92;9.35;;;9.20;99.90;;;;;;5066763;28;20051;-58
2022/02/09 03:56:53;;;;;;;16.65;10.23;;;9.20;99.90;;;;;;5072904;28;20039;-58
2022/02/09 03:59:16;;;;;;;15.48;9.20;;;9.20;99.90;;;;;;5072000;28;20033;-59
2022/02/09 04:01:43;;;;;;;16.80;9.70;;;9.10;99.90;;;;;;5072280;28;20040;-58
2022/02/09 04:04:09;;;;;;;13.85;8.20;;;9.20;99.90;;;;;;5072521;28;20104;-58
2022/02/09 04:06:36;;;;;;;12.80;7.38;;;9.20;99.90;;;;;;5072773;28;20092;-58
2022/02/09 04:09:06;;;;;;;10.02;6.88;;;9.20;99.90;;;;;;5071599;28;20019;-58
2022/02/09 04:11:37;;;;;;;9.90;7.45;;;9.20;99.90;;;;;;5072428;28;20021;-58
2022/02/09 04:19:15;;;;;;;13.82;7.60;;;9.20;99.90;;;;;;5063332;28;20051;-58
2022/02/09 04:38:12;;;;;;;14.73;8.52;;;9.20;99.90;;;;;;5071428;28;20043;-57
2022/02/09 04:51:21;;;;;;;12.18;8.05;;;9.20;99.90;;;;;;5051669;28;20082;-58
2022/02/09 05:02:30;;;;;;;12.27;8.00;;;9.10;99.90;;;;;;5051631;28;20113;-60
2022/02/09 05:21:22;;;;;;;12.15;7.38;;;8.90;99.90;;;;;;5071063;28;20105;-60
2022/02/09 05:24:03;;;;;;;14.80;8.30;;;9.00;99.90;;;;;;5070721;28;20486;-59
2022/02/09 05:29:12;;;;;;;12.77;7.75;;;8.90;99.90;;;;;;5070294;28;20043;-60
2022/02/09 05:31:38;;;;;;;10.18;6.97;;;9.00;99.90;;;;;;5069668;28;20575;-59
2022/02/09 05:34:03;;;;;;;12.40;7.68;;;8.90;99.90;;;;;;5070921;28;20101;-59
2022/02/09 05:36:29;;;;;;;10.90;6.78;;;9.00;99.90;;;;;;5046009;28;20064;-59
2022/02/09 05:38:55;;;;;;;11.38;7.85;;;9.00;99.90;;;;;;5038576;28;20116;-59
2022/02/09 05:41:20;;;;;;;10.70;7.95;;;9.00;99.90;;;;;;5040759;28;20179;-59
2022/02/09 05:43:46;;;;;;;10.57;6.75;;;9.00;99.90;;;;;;5040565;28;20021;-58
2022/02/09 05:51:34;;;;;;;13.23;7.53;;;9.00;99.90;;;;;;5040239;28;20047;-59
2022/02/09 05:59:05;;;;;;;9.60;6.28;;;9.00;99.90;;;;;;5049985;28;20017;-58
2022/02/09 06:01:31;;;;;;;9.98;6.18;;;9.00;99.90;;;;;;5030299;28;20456;-58
2022/02/09 06:03:57;;;;;;;10.70;6.50;;;9.00;99.90;;;;;;5030528;28;20472;-58
2022/02/09 06:06:22;;;;;;;10.05;6.70;;;9.00;99.90;;;;;;5030178;28;20036;-57
2022/02/09 06:08:48;;;;;;;9.77;6.10;;;9.00;99.90;;;;;;5029189;28;20056;-57
2022/02/09 06:11:25;;;;;;;9.68;5.95;;;9.00;99.90;;;;;;5030168;28;20488;-58
2022/02/09 06:14:13;;;;;;;11.43;6.20;;;9.00;99.90;;;;;;5030228;28;20099;-58
2022/02/09 06:21:59;;;;;;;10.70;5.80;;;9.10;99.90;;;;;;5040997;28;20540;-58
2022/02/09 06:24:25;;;;;;;5.88;4.80;;;9.00;99.90;;;;;;5046409;28;20025;-58
2022/02/09 06:26:51;;;;;;;7.40;5.00;;;9.00;99.90;;;;;;5032543;28;20083;-59
2022/02/09 06:29:17;;;;;;;6.03;4.72;;;9.00;99.90;;;;;;5056102;28;20029;-58
2022/02/09 06:31:44;;;;;;;9.90;4.65;;;9.00;99.90;;;;;;5038891;28;20117;-58
2022/02/09 06:34:15;;;;;;;11.88;4.85;;;9.00;99.90;;;;;;5058285;28;20430;-59
2022/02/09 06:36:45;;;;;;;7.90;4.60;;;9.10;99.90;;;;;;5060612;28;20021;-59
2022/02/09 06:39:13;;;;;;;6.57;4.30;;;9.10;99.90;;;;;;5059975;28;20054;-59
2022/02/09 06:41:40;;;;;;;5.65;4.25;;;9.10;99.90;;;;;;5047858;28;20037;-59
2022/02/09 06:44:06;;;;;;;6.63;4.47;;;9.10;99.90;;;;;;5029688;28;20095;-59
2022/02/09 06:46:34;;;;;;;6.15;4.55;;;9.10;99.90;;;;;;5039854;28;20021;-59
2022/02/09 06:49:05;;;;;;;6.55;4.72;;;9.10;99.90;;;;;;5046004;28;20390;-58
2022/02/09 06:51:33;;;;;;;4.88;4.18;;;9.00;99.90;;;;;;5048643;28;20029;-59
2022/02/09 06:54:03;;;;;;;6.40;4.88;;;9.10;99.90;;;;;;5033317;28;20037;-56
2022/02/09 06:59:30;;;;;;;7.70;5.07;;;9.10;99.90;;;;;;5023276;28;20069;-56
2022/02/09 07:02:07;;;;;;;6.85;4.80;;;8.90;99.90;;;;;;5026594;28;20041;-56
2022/02/09 07:04:35;;;;;;;7.40;5.20;;;9.00;99.90;;;;;;5033096;28;20368;-56
2022/02/09 07:07:00;;;;;;;8.55;5.43;;;9.00;99.90;;;;;;5038204;28;20144;-59
2022/02/09 07:09:27;;;;;;;6.47;5.35;;;8.90;99.90;;;;;;5029591;28;20073;-59
2022/02/09 07:11:54;;;;;;;10.15;5.60;;;8.90;99.90;;;;;;5028402;28;20033;-58
2022/02/09 07:14:25;;;;;;;11.90;6.20;;;8.90;99.90;;;;;;5028749;28;20064;-58
2022/02/09 07:16:52;;;;;;;7.68;5.63;;;8.90;99.90;;;;;;5047858;28;20363;-59
2022/02/09 07:19:18;;;;;;;10.65;6.00;;;8.90;99.90;;;;;;5051313;28;20024;-59
2022/02/09 07:21:44;;;;;;;8.95;6.43;;;8.90;99.90;;;;;;5068111;28;20027;-60
2022/02/09 07:24:15;;;;;;;10.95;6.30;;;8.90;99.90;;;;;;5068258;28;20020;-59
2022/02/09 07:29:10;;;;;;;8.23;5.95;;;8.80;99.90;;;;;;5034827;28;20112;-59
2022/02/09 07:31:36;;;;;;;8.70;6.53;;;8.80;99.90;;;;;;5034570;28;20029;-59
2022/02/09 07:34:01;;;;;;;9.57;6.90;;;8.80;99.90;;;;;;5048509;28;20036;-60
2022/02/09 07:36:31;;;;;;;9.75;6.82;;;8.70;99.90;;;;;;5048738;28;20040;-59
2022/02/09 07:38:57;;;;;;;12.02;6.47;;;8.70;99.90;;;;;;5047718;28;20119;-59
2022/02/09 07:41:22;;;;;;;8.52;6.53;;;8.70;99.90;;;;;;5033923;28;20029;-59
2022/02/09 07:54:01;;;;;;;7.80;5.40;;;8.80;99.90;;;;;;5038956;28;20076;-59
2022/02/09 07:56:31;;;;;;;7.63;5.10;;;8.90;99.90;;;;;;5049450;28;20028;-59
2022/02/09 07:58:57;;;;;;;7.72;5.05;;;8.90;99.90;;;;;;5047415;28;20021;-59
2022/02/09 08:01:23;;;;;;;8.85;4.38;;;8.90;99.90;;;;;;5037127;28;20033;-58
2022/02/09 08:03:50;;;;;;;10.15;4.72;;;8.90;99.90;;;;;;5028388;28;20025;-59
2022/02/09 08:06:18;;;;;;;5.25;4.13;;;8.90;99.90;;;;;;5028596;28;20029;-59
2022/02/09 08:08:45;;;;;;;5.97;3.60;;;9.00;99.90;;;;;;5028137;28;20026;-59
2022/02/09 08:23:31;;;;;;;5.15;3.13;;;9.10;99.90;;;;;;5044786;28;20039;-59
2022/02/09 08:25:52;;;;;;;4.53;2.92;;;9.20;99.90;;;;;;5061603;28;20033;-59
2022/02/09 08:30:07;;;;;;;5.85;3.17;;;9.20;99.90;;;;;;5053084;28;20033;-59
2022/02/09 08:32:39;;;;;;;6.35;2.83;;;9.20;99.90;;;;;;5026848;28;20029;-58
2022/02/09 08:35:06;;;;;;;6.25;2.85;;;9.20;99.90;;;;;;5028447;28;20029;-59
2022/02/09 08:37:32;;;;;;;6.72;3.38;;;9.20;99.90;;;;;;5026316;28;20286;-59
2022/02/09 08:39:57;;;;;;;6.25;2.88;;;9.20;99.90;;;;;;5028858;28;20105;-59
2022/02/09 08:42:24;;;;;;;5.03;3.13;;;9.20;99.90;;;;;;5058722;28;20111;-59
2022/02/09 08:44:50;;;;;;;3.80;2.75;;;9.20;99.90;;;;;;5051665;28;20471;-59
2022/02/09 08:47:16;;;;;;;3.78;2.83;;;9.20;99.90;;;;;;5055478;28;20108;-58
2022/02/09 08:49:41;;;;;;;5.85;2.97;;;9.20;99.90;;;;;;5066579;28;20494;-59
2022/02/09 08:52:07;;;;;;;6.82;3.13;;;9.20;99.90;;;;;;5071668;28;20036;-59
2022/02/09 08:54:33;;;;;;;7.63;2.97;;;9.20;99.90;;;;;;5071226;28;20046;-59
2022/02/09 08:57:02;;;;;;;4.40;3.40;;;9.30;99.90;;;;;;5057313;28;20025;-58
2022/02/09 08:59:29;;;;;;;3.28;2.63;;;9.40;99.90;;;;;;5029526;28;20039;-59
2022/02/09 09:02:04;;;;;;;4.38;3.50;;;9.50;99.90;;;;;;5030194;28;20053;-58
2022/02/09 09:04:34;;;;;;;6.40;4.00;;;9.50;99.90;;;;;;5031644;28;20017;-59
2022/02/09 09:07:06;;;;;;;5.72;4.10;;;9.60;99.90;;;;;;5031438;28;20017;-59
2022/02/09 09:59:43;;;;;;;4.95;3.95;;;8.60;99.90;;;;;;5041328;28;20192;-59
2022/02/09 10:02:34;;;;;;;6.18;4.30;;;8.60;99.90;;;;;;5039090;28;20566;-59
2022/02/09 10:32:49;;;;;;;7.10;4.82;;;9.00;99.90;;;;;;5050049;28;20106;-59
2022/02/09 10:35:43;;;;;;;7.22;4.55;;;9.10;99.90;;;;;;5042486;28;20372;-59
2022/02/09 10:38:28;;;;;;;4.80;4.13;;;9.10;99.90;;;;;;5036529;28;20128;-58
2022/02/09 10:41:06;;;;;;;6.85;3.47;;;9.10;99.90;;;;;;5050641;28;20050;-59
2022/02/09 10:43:34;;;;;;;7.88;3.58;;;9.20;99.90;;;;;;5051144;28;20049;-60
2022/02/09 10:46:20;;;;;;;6.15;3.35;;;9.20;99.90;;;;;;5041418;28;20029;-60
2022/02/09 10:48:52;;;;;;;4.70;3.50;;;9.20;99.90;;;;;;5040462;28;20371;-60
2022/02/09 10:51:32;;;;;;;3.60;3.30;;;9.30;99.90;;;;;;5042761;28;20042;-60
2022/02/09 10:54:13;;;;;;;5.82;4.32;;;9.40;99.90;;;;;;5049112;28;20029;-60
2022/02/09 10:56:47;;;;;;;6.03;4.75;;;9.40;99.90;;;;;;5030956;28;20036;-60
2022/02/09 10:59:15;;;;;;;5.63;4.80;;;9.30;99.90;;;;;;5038548;28;20117;-60
2022/02/09 11:01:42;;;;;;;5.50;4.65;;;9.10;99.90;;;;;;5040115;28;20024;-60
2022/02/09 11:04:09;;;;;;;5.50;4.68;;;9.10;99.90;;;;;;5039690;28;20025;-60
2022/02/09 11:06:37;;;;;;;6.63;5.20;;;9.10;99.90;;;;;;5038569;28;20490;-60
2022/02/09 11:09:05;;;;;;;7.43;5.18;;;9.10;99.90;;;;;;5039539;28;20025;-59
2022/02/09 11:11:31;;;;;;;6.25;4.97;;;9.10;99.90;;;;;;5038652;28;20108;-60
2022/02/09 11:13:57;;;;;;;8.00;5.07;;;9.10;99.90;;;;;;5047411;28;20697;-59
2022/02/09 11:16:25;;;;;;;6.78;5.32;;;9.10;99.90;;;;;;5045468;28;20127;-60
2022/02/09 11:18:54;;;;;;;6.38;5.40;;;9.10;99.90;;;;;;5042771;28;20037;-60
2022/02/09 11:21:30;;;;;;;6.25;5.65;;;9.10;99.90;;;;;;5040030;28;20061;-59
2022/02/09 11:24:00;;;;;;;5.20;4.70;;;9.20;99.90;;;;;;5040113;28;20014;-59
2022/02/09 11:26:32;;;;;;;5.55;4.72;;;9.20;99.90;;;;;;5038907;28;20151;-60
2022/02/09 11:34:52;;;;;;;5.55;4.55;;;9.70;99.90;;;;;;5039016;28;20025;-61
2022/02/09 11:37:26;;;;;;;5.43;4.03;;;9.80;99.90;;;;;;5039346;28;20025;-60
2022/02/09 11:39:54;;;;;;;5.68;4.45;;;9.90;99.90;;;;;;5037988;28;20672;-62
2022/02/09 11:42:40;;;;;;;3.92;3.60;;;9.90;99.90;;;;;;5039983;28;20471;-60
2022/02/09 11:46:03;;;;;;;4.32;3.60;;;10.10;99.90;;;;;;5041058;28;20040;-60
2022/02/09 11:51:12;;;;;;;4.60;3.42;;;10.30;99.90;;;;;;5037239;28;21212;-60
2022/02/09 12:08:59;;;;;;;4.82;4.13;;;9.60;99.90;;;;;;5038458;28;20129;-59
2022/02/09 12:11:42;;;;;;;31.47;16.90;;;9.60;99.90;;;;;;5038015;28;20021;-60
2022/02/09 12:16:51;;;;;;;8.40;4.25;;;9.60;99.90;;;;;;5041394;28;20103;-60
2022/02/09 12:19:30;;;;;;;4.35;3.95;;;9.60;99.90;;;;;;5045385;28;20131;-60
2022/02/09 12:22:10;;;;;;;4.82;4.28;;;9.70;99.90;;;;;;5040506;28;20407;-59
2022/02/09 12:24:37;;;;;;;3.65;3.17;;;9.80;99.90;;;;;;5041192;28;20016;-59
2022/02/09 12:27:12;;;;;;;4.28;3.80;;;10.00;99.90;;;;;;5040355;28;20037;-59
2022/02/09 12:29:44;;;;;;;5.10;3.80;;;10.00;99.90;;;;;;5040893;28;20013;-60
2022/02/09 12:32:16;;;;;;;4.47;2.92;;;10.10;99.90;;;;;;5040794;28;20545;-60
2022/02/09 12:34:54;;;;;;;7.13;3.30;;;10.00;99.90;;;;;;5041332;28;20083;-60
2022/02/09 12:37:19;;;;;;;4.90;3.25;;;10.00;99.90;;;;;;5041061;28;20025;-60
2022/02/09 12:39:52;;;;;;;3.25;3.00;;;10.10;99.90;;;;;;5041309;28;20044;-60
2022/02/09 12:42:19;;;;;;;4.28;3.05;;;10.10;99.90;;;;;;5047653;28;20128;-59
2022/02/09 12:45:02;;;;;;;3.92;2.90;;;10.10;99.90;;;;;;5043526;28;20094;-60
2022/02/09 12:47:30;;;;;;;3.70;2.67;;;10.10;99.90;;;;;;5042695;28;20167;-59
2022/02/09 12:49:55;;;;;;;3.30;3.00;;;10.10;99.90;;;;;;5043443;28;20477;-59
2022/02/09 12:52:26;;;;;;;3.40;3.10;;;10.10;99.90;;;;;;5041129;28;20129;-59
2022/02/09 12:55:21;;;;;;;;;;;10.20;99.90;;;;;;5040685;28;20103;-59
2022/02/09 12:57:51;;;;;;;4.30;3.42;;;10.20;99.90;;;;;;5032012;28;19905;-59
2022/02/09 13:00:24;;;;;;;3.70;2.80;;;10.10;99.90;;;;;;5041313;28;20162;-60
2022/02/09 13:02:50;;;;;;;3.75;2.72;;;10.10;99.90;;;;;;5040100;28;20030;-59
2022/02/09 13:05:16;;;;;;;4.78;2.60;;;10.10;99.90;;;;;;5041154;28;20017;-60
2022/02/09 13:07:54;;;;;;;3.33;2.63;;;10.10;99.90;;;;;;5039234;28;20433;-59
2022/02/09 13:10:25;;;;;;;3.97;2.70;;;10.10;99.90;;;;;;5041006;28;20431;-60
2022/02/09 13:12:51;;;;;;;7.35;2.38;;;10.10;99.90;;;;;;5049705;28;20152;-59
2022/02/09 13:15:25;;;;;;;2.72;2.35;;;10.10;99.90;;;;;;5037371;28;20108;-59
2022/02/09 13:21:39;;;;;;;2.13;1.92;;;10.00;99.90;;;;;;5043216;28;20033;-59
2022/02/09 13:51:50;;;;;;;4.40;2.47;;;10.00;99.90;;;;;;5040096;28;20033;-59
2022/02/09 14:13:55;;;;;;;3.20;2.90;;;10.20;99.90;;;;;;5037756;28;20108;-60
2022/02/09 14:17:09;;;;;;;2.65;2.45;;;10.10;99.90;;;;;;5040570;28;20025;-59
2022/02/09 14:19:21;;;;;;;4.40;3.28;;;10.10;99.90;;;;;;5043350;28;20033;-59
2022/02/09 14:34:01;;;;;;;5.50;3.05;;;10.20;99.90;;;;;;5037206;28;20049;-58
2022/02/09 14:49:53;;;;;;;3.92;2.85;;;10.10;99.90;;;;;;5057003;28;20059;-60
2022/02/09 14:57:04;;;;;;;2.83;2.45;;;10.10;99.90;;;;;;5048465;28;20086;-60
2022/02/09 15:02:09;;;;;;;4.90;2.78;;;10.00;99.90;;;;;;5049108;28;20029;-57
2022/02/09 15:05:03;;;;;;;3.85;3.10;;;10.00;99.90;;;;;;5049087;28;20489;-56
2022/02/09 15:09:56;;;;;;;3.28;2.85;;;10.10;99.90;;;;;;5046052;28;20040;-56
2022/02/09 15:12:28;;;;;;;;;;;10.00;99.90;;;;;;5037229;28;20079;-55
2022/02/09 15:22:39;;;;;;;6.40;3.92;;;9.70;99.90;;;;;;5040416;28;20083;-55
2022/02/09 15:25:14;;;;;;;5.88;4.22;;;9.60;99.90;;;;;;5030981;28;20033;-55
2022/02/09 15:27:39;;;;;;;4.82;4.28;;;9.50;99.90;;;;;;5029473;28;20025;-56
2022/02/09 15:30:08;;;;;;;5.97;4.28;;;9.40;99.90;;;;;;5034975;28;20372;-56
2022/02/09 15:32:42;;;;;;;5.32;4.60;;;9.30;99.90;;;;;;5038071;28;20077;-56
2022/02/09 15:35:57;;;;;;;5.28;4.32;;;9.20;99.90;;;;;;5036183;28;20036;-56
2022/02/09 15:38:00;;;;;;;6.38;4.90;;;9.10;99.90;;;;;;5032900;28;20128;-56
2022/02/09 15:56:34;;;;;;;6.70;5.57;;;9.00;99.90;;;;;;5029606;28;20521;-56
2022/02/09 15:59:20;;;;;;;6.75;5.38;;;9.00;99.90;;;;;;5042735;28;20021;-55
2022/02/09 16:16:37;;;;;;;7.43;5.47;;;9.10;99.90;;;;;;5023503;28;20022;-55
2022/02/09 16:23:42;;;;;;;9.20;5.97;;;9.20;99.90;;;;;;5067993;28;20575;-55
2022/02/09 16:34:45;;;;;;;5.50;5.00;;;9.30;99.90;;;;;;5068169;28;20451;-55
2022/02/09 16:37:37;;;;;;;7.07;4.97;;;9.30;99.90;;;;;;5068009;28;20025;-55
2022/02/09 16:45:31;;;;;;;5.45;4.32;;;9.30;99.90;;;;;;5068316;28;20032;-55
2022/02/09 16:48:03;;;;;;;7.80;4.65;;;9.30;99.90;;;;;;5050802;28;20021;-55
2022/02/09 16:50:38;;;;;;;5.10;4.22;;;9.30;99.90;;;;;;5061604;28;20111;-55
2022/02/09 17:19:52;;;;;;;5.35;3.78;;;9.40;99.90;;;;;;5062026;28;20325;-55
2022/02/09 17:22:18;;;;;;;6.07;3.78;;;9.40;99.90;;;;;;5069868;28;20060;-54
2022/02/09 17:24:44;;;;;;;6.22;5.05;;;9.40;99.90;;;;;;5069884;28;20028;-54
2022/02/09 17:27:16;;;;;;;4.30;3.78;;;9.30;99.90;;;;;;5070642;28;20032;-55
2022/02/09 17:35:21;;;;;;;6.68;3.92;;;9.30;99.90;;;;;;5070965;28;20051;-57
2022/02/09 17:53:59;;;;;;;6.50;5.85;;;9.30;99.90;;;;;;5070520;28;20460;-57
2022/02/09 17:56:29;;;;;;;8.02;6.13;;;9.30;99.90;;;;;;5069005;28;20048;-57
2022/02/09 17:58:54;;;;;;;12.15;6.60;;;9.30;99.90;;;;;;5069601;28;20028;-56
2022/02/09 18:01:21;;;;;;;7.85;6.28;;;9.30;99.90;;;;;;5070157;28;20025;-58
2022/02/09 18:03:47;;;;;;;6.32;5.32;;;9.40;99.90;;;;;;5068604;28;20017;-57
2022/02/09 18:08:50;;;;;;;8.13;6.15;;;9.40;99.90;;;;;;5069806;28;20259;-56
2022/02/09 18:27:52;;;;;;;10.43;6.88;;;9.30;99.90;;;;;;5068923;28;20561;-57
2022/02/09 18:30:23;;;;;;;8.43;7.22;;;9.30;99.90;;;;;;5069395;28;20621;-57
2022/02/09 18:33:07;;;;;;;7.40;6.60;;;9.30;99.90;;;;;;5069802;28;20024;-57
2022/02/09 18:42:08;;;;;;;10.18;8.25;;;9.30;99.90;;;;;;5038760;28;20086;-58
2022/02/09 18:46:39;;;;;;;14.20;9.68;;;9.30;99.90;;;;;;5036192;28;20017;-56
2022/02/09 18:56:54;;;;;;;10.90;9.30;;;9.40;99.90;;;;;;5056849;28;20071;-57
2022/02/09 18:58:00;;;;;;;11.20;9.82;;;9.30;99.90;;;;;;5046835;28;20086;-56
2022/02/09 19:01:06;;;;;;;12.05;9.68;;;9.30;99.90;;;;;;5029253;28;20419;-56
2022/02/09 19:03:33;;;;;;;13.90;11.25;;;9.30;99.90;;;;;;5029168;28;20037;-56
2022/02/09 19:06:05;;;;;;;13.73;10.23;;;9.30;99.90;;;;;;5029120;28;20029;-56
2022/02/09 19:08:50;;;;;;;16.35;10.35;;;9.20;99.90;;;;;;5028531;28;20037;-57
2022/02/09 19:17:08;;;;;;;13.88;11.10;;;9.20;99.90;;;;;;5015336;28;20185;-57
2022/02/09 19:30:43;;;;;;;14.45;11.15;;;9.20;99.90;;;;;;5068835;28;20042;-58
2022/02/09 19:40:31;;;;;;;12.82;10.55;;;9.20;99.90;;;;;;5068519;28;20543;-57
2022/02/09 19:42:41;;;;;;;13.50;10.88;;;9.10;99.90;;;;;;5068371;28;20039;-57
2022/02/09 19:47:38;;;;;;;14.15;11.73;;;9.10;99.90;;;;;;5054622;28;20523;-57
2022/02/09 19:50:13;;;;;;;13.10;10.70;;;9.10;99.90;;;;;;5060240;28;20025;-58
2022/02/09 19:55:41;;;;;;;15.48;10.65;;;9.20;99.90;;;;;;5065631;28;20116;-58
2022/02/09 19:58:08;;;;;;;14.65;11.25;;;9.20;99.90;;;;;;5067351;28;20194;-58
2022/02/09 20:00:37;;;;;;;12.90;10.88;;;9.10;99.90;;;;;;5068616;28;20239;-57
2022/02/09 20:03:05;;;;;;;12.75;10.32;;;9.20;99.90;;;;;;5068160;28;20389;-57
2022/02/09 20:05:31;;;;;;;14.25;10.20;;;9.20;99.90;;;;;;5066836;28;20070;-57
2022/02/09 20:07:57;;;;;;;12.77;10.40;;;9.20;99.90;;;;;;5066554;28;20025;-58
2022/02/09 20:10:23;;;;;;;14.55;11.10;;;9.10;99.90;;;;;;5068080;28;20370;-58
2022/02/09 20:12:50;;;;;;;15.10;12.15;;;9.10;99.90;;;;;;5050522;28;20024;-57
2022/02/09 20:15:17;;;;;;;15.35;10.73;;;9.20;99.90;;;;;;5068119;28;20035;-57
2022/02/09 20:17:44;;;;;;;15.60;11.10;;;9.20;99.90;;;;;;5055675;28;20025;-58
2022/02/09 20:20:15;;;;;;;13.65;10.43;;;9.20;99.90;;;;;;5059650;28;20224;-57
2022/02/09 20:22:42;;;;;;;14.60;10.48;;;9.10;99.90;;;;;;5068225;28;20028;-58
2022/02/09 20:25:10;;;;;;;12.35;10.10;;;9.10;99.90;;;;;;5066567;28;20115;-57
2022/02/09 20:27:37;;;;;;;13.35;10.50;;;9.10;99.90;;;;;;5067665;28;20025;-58
2022/02/09 20:30:06;;;;;;;17.45;11.52;;;9.10;99.90;;;;;;5068201;28;20023;-57
2022/02/09 20:32:33;;;;;;;17.50;11.63;;;9.10;99.90;;;;;;5067968;28;20417;-58
2022/02/09 20:35:03;;;;;;;15.13;11.88;;;9.10;99.90;;;;;;5068205;28;20100;-56
2022/02/09 20:37:30;;;;;;;16.67;12.18;;;9.10;99.90;;;;;;5070935;28;20389;-56
2022/02/09 20:40:02;;;;;;;14.10;11.57;;;9.10;99.90;;;;;;5071944;28;20024;-56
2022/02/09 20:42:28;;;;;;;14.82;11.75;;;9.10;99.90;;;;;;5071807;28;20033;-56
2022/02/09 20:45:06;;;;;;;15.75;12.18;;;9.10;99.90;;;;;;5071695;28;20078;-57
2022/02/09 20:47:32;;;;;;;15.70;12.20;;;9.10;99.90;;;;;;5058968;28;20017;-57
2022/02/09 20:49:58;;;;;;;15.95;12.18;;;9.10;99.90;;;;;;5063166;28;20017;-58
2022/02/09 20:52:23;;;;;;;14.80;11.32;;;9.10;99.90;;;;;;5071290;28;20644;-57
2022/02/09 20:54:49;;;;;;;15.90;12.48;;;9.10;99.90;;;;;;5071632;28;20039;-57
2022/02/09 20:57:15;;;;;;;16.50;12.90;;;9.10;99.90;;;;;;5058185;28;20037;-56
2022/02/09 20:59:47;;;;;;;17.70;12.38;;;9.00;99.90;;;;;;5038914;28;20038;-56
2022/02/09 21:04:53;;;;;;;21.92;14.77;;;9.00;99.90;;;;;;5040799;28;20087;-56
2022/02/09 21:07:31;;;;;;;19.25;13.50;;;9.00;99.90;;;;;;5041057;28;20025;-57
2022/02/09 21:10:12;;;;;;;17.00;13.45;;;9.00;99.90;;;;;;5040165;28;20040;-56
2022/02/09 21:12:46;;;;;;;19.23;13.98;;;9.00;99.90;;;;;;5041060;28;20021;-56
2022/02/09 21:18:33;;;;;;;19.58;13.30;;;9.00;99.90;;;;;;5044694;28;20025;-56
2022/02/09 21:44:00;;;;;;;20.15;14.02;;;9.00;99.90;;;;;;5039471;28;20056;-55
2022/02/09 21:53:51;;;;;;;24.65;15.00;;;8.80;99.90;;;;;;5040517;28;20031;-55
2022/02/09 21:56:22;;;;;;;19.25;14.10;;;8.90;99.90;;;;;;5040744;28;20064;-55
2022/02/09 22:19:58;;;;;;;21.95;15.45;;;8.90;99.90;;;;;;5060889;28;20391;-55
2022/02/09 22:22:40;;;;;;;20.90;14.52;;;8.90;99.90;;;;;;5068978;28;20043;-55
2022/02/09 22:27:54;;;;;;;22.35;14.20;;;8.90;99.90;;;;;;5069329;28;20568;-55
2022/02/09 22:31:16;;;;;;;26.15;16.08;;;8.80;99.90;;;;;;5070019;28;20213;-55
2022/02/09 22:47:32;;;;;;;22.00;15.63;;;8.80;99.90;;;;;;5062893;28;20060;-55
2022/02/09 22:55:12;;;;;;;24.80;16.63;;;8.90;99.90;;;;;;5025681;28;20456;-55
2022/02/09 22:57:51;;;;;;;27.15;15.93;;;8.80;99.90;;;;;;5044234;28;20096;-55
2022/02/09 23:00:52;;;;;;;22.40;14.80;;;8.80;99.90;;;;;;5048697;28;20031;-55
2022/02/09 23:03:26;;;;;;;24.35;15.65;;;8.80;99.90;;;;;;5048889;28;20160;-55
2022/02/09 23:06:08;;;;;;;23.67;16.15;;;8.80;99.90;;;;;;5049199;28;20017;-55
2022/02/09 23:17:31;;;;;;;24.35;15.10;;;8.90;99.90;;;;;;5031853;28;20030;-56
2022/02/09 23:22:50;;;;;;;28.33;15.93;;;8.90;99.90;;;;;;5048734;28;20028;-55
2022/02/09 23:25:23;;;;;;;23.02;15.13;;;8.90;99.90;;;;;;5048642;28;20080;-55
2022/02/09 23:55:08;;;;;;;18.25;11.68;;;8.80;99.90;;;;;;5068832;28;20536;-55
